createdAt,value
2022-09-26T00:01:20.662Z,11.10
2022-09-26T00:03:53.184Z,11.00
2022-09-26T00:06:20.667Z,11.00
2022-09-26T00:08:49.254Z,11.00
2022-09-26T00:11:22.763Z,11.00
2022-09-26T00:13:53.126Z,11.00
2022-09-26T00:16:20.580Z,11.00
2022-09-26T00:18:52.103Z,11.00
2022-09-26T00:21:19.355Z,11.00
2022-09-26T00:23:46.801Z,11.00
2022-09-26T00:26:15.507Z,11.00
2022-09-26T00:28:42.743Z,11.00
2022-09-26T00:31:13.553Z,11.00
2022-09-26T00:33:40.868Z,11.00
2022-09-26T00:36:08.177Z,11.00
2022-09-26T00:38:35.717Z,11.00
2022-09-26T00:41:04.176Z,11.00
2022-09-26T00:43:37.058Z,11.10
2022-09-26T00:46:23.126Z,11.10
2022-09-26T00:49:12.286Z,11.10
2022-09-26T00:51:42.701Z,11.10
2022-09-26T00:54:13.973Z,11.10
2022-09-26T00:56:43.284Z,11.10
2022-09-26T00:59:19.261Z,11.10
2022-09-26T01:01:46.607Z,11.10
2022-09-26T01:04:13.970Z,11.10
2022-09-26T01:06:41.454Z,11.00
2022-09-26T01:09:09.389Z,11.00
2022-09-26T01:11:37.379Z,11.00
2022-09-26T01:14:06.911Z,11.00
2022-09-26T01:16:34.309Z,11.00
2022-09-26T01:19:08.218Z,11.00
2022-09-26T01:22:16.755Z,11.00
2022-09-26T01:24:58.272Z,11.00
2022-09-26T01:27:42.171Z,11.00
2022-09-26T01:30:13.017Z,11.00
2022-09-26T01:33:07.864Z,11.00
2022-09-26T01:35:56.217Z,11.00
2022-09-26T01:38:30.698Z,11.00
2022-09-26T01:41:06.825Z,11.00
2022-09-26T01:44:04.311Z,11.10
2022-09-26T01:46:51.020Z,11.00
2022-09-26T01:49:35.478Z,11.00
2022-09-26T01:52:22.580Z,11.00
2022-09-26T01:54:58.572Z,11.00
2022-09-26T01:57:31.659Z,11.00
2022-09-26T02:00:03.907Z,11.00
2022-09-26T02:02:36.068Z,11.00
2022-09-26T02:05:25.585Z,11.00
2022-09-26T02:08:16.578Z,11.00
2022-09-26T02:10:59.527Z,11.00
2022-09-26T02:13:33.671Z,11.00
2022-09-26T02:16:08.251Z,11.00
2022-09-26T02:18:42.643Z,11.00
2022-09-26T02:21:19.777Z,11.00
2022-09-26T02:23:50.872Z,11.00
2022-09-26T02:26:18.335Z,11.00
2022-09-26T02:28:46.145Z,11.00
2022-09-26T02:31:21.221Z,11.00
2022-09-26T02:33:49.797Z,10.90
2022-09-26T02:36:18.471Z,10.90
2022-09-26T02:38:45.319Z,10.90
2022-09-26T02:41:37.732Z,10.90
2022-09-26T02:44:13.699Z,10.90
2022-09-26T02:46:55.375Z,11.00
2022-09-26T02:49:37.204Z,10.90
2022-09-26T02:52:28.569Z,10.90
2022-09-26T02:55:21.853Z,11.00
2022-09-26T02:58:26.472Z,10.90
2022-09-26T03:01:05.169Z,10.90
2022-09-26T03:04:01.567Z,10.90
2022-09-26T03:06:35.796Z,10.90
2022-09-26T03:09:04.341Z,10.90
2022-09-26T03:11:33.681Z,10.90
2022-09-26T03:14:01.620Z,10.90
2022-09-26T03:16:34.231Z,10.80
2022-09-26T03:19:05.826Z,10.80
2022-09-26T03:21:36.787Z,10.80
2022-09-26T03:24:04.221Z,10.80
2022-09-26T03:26:32.712Z,10.80
2022-09-26T03:28:59.809Z,10.80
2022-09-26T03:31:27.242Z,10.90
2022-09-26T03:33:54.310Z,10.90
2022-09-26T03:36:24.298Z,10.80
2022-09-26T03:38:51.202Z,10.70
2022-09-26T03:41:18.238Z,10.70
2022-09-26T03:43:45.142Z,10.70
2022-09-26T03:46:12.636Z,10.70
2022-09-26T03:48:39.896Z,10.70
2022-09-26T03:51:09.423Z,10.80
2022-09-26T03:53:39.805Z,10.80
2022-09-26T03:56:15.318Z,10.80
2022-09-26T03:58:42.644Z,10.80
2022-09-26T04:01:19.082Z,10.80
2022-09-26T04:03:50.548Z,10.80
2022-09-26T04:06:22.372Z,10.80
2022-09-26T04:08:50.496Z,10.80
2022-09-26T04:11:19.929Z,10.80
2022-09-26T04:13:52.951Z,10.80
2022-09-26T04:16:22.777Z,10.90
2022-09-26T04:18:50.269Z,10.90
2022-09-26T04:21:17.374Z,10.90
2022-09-26T04:23:44.688Z,10.90
2022-09-26T04:26:20.244Z,10.90
2022-09-26T04:28:52.337Z,10.90
2022-09-26T04:31:21.551Z,10.90
2022-09-26T04:33:49.204Z,10.90
2022-09-26T04:36:17.206Z,10.90
2022-09-26T04:38:44.022Z,10.90
2022-09-26T04:41:13.149Z,10.90
2022-09-26T04:43:40.321Z,10.90
2022-09-26T04:46:14.067Z,10.90
2022-09-26T04:48:44.705Z,10.90
2022-09-26T04:51:13.496Z,10.90
2022-09-26T04:53:41.712Z,11.00
2022-09-26T04:56:11.656Z,11.00
2022-09-26T04:58:39.054Z,11.00
2022-09-26T05:01:14.722Z,11.00
2022-09-26T05:03:42.080Z,10.90
2022-09-26T05:06:10.222Z,10.90
2022-09-26T05:08:38.998Z,10.90
2022-09-26T05:11:06.609Z,11.00
2022-09-26T05:13:33.568Z,11.00
2022-09-26T05:16:01.805Z,11.00
2022-09-26T05:18:29.437Z,11.00
2022-09-26T05:20:57.442Z,11.00
2022-09-26T05:23:45.410Z,11.00
2022-09-26T05:26:44.258Z,11.00
2022-09-26T05:29:12.241Z,10.90
2022-09-26T05:31:39.937Z,10.90
2022-09-26T05:34:13.060Z,10.80
2022-09-26T05:36:42.870Z,10.80
2022-09-26T05:39:30.369Z,10.80
2022-09-26T05:41:59.121Z,10.80
2022-09-26T05:44:26.657Z,10.80
2022-09-26T05:46:53.623Z,10.80
2022-09-26T05:49:20.500Z,10.80
2022-09-26T05:51:47.264Z,10.80
2022-09-26T05:54:14.206Z,10.80
2022-09-26T05:56:41.198Z,10.80
2022-09-26T05:59:08.320Z,10.80
2022-09-26T06:01:35.834Z,10.80
2022-09-26T06:04:05.583Z,10.80
2022-09-26T06:06:32.715Z,10.80
2022-09-26T06:09:00.250Z,10.80
2022-09-26T06:11:32.988Z,10.90
2022-09-26T06:14:01.036Z,11.00
2022-09-26T06:16:29.188Z,11.00
2022-09-26T06:18:56.354Z,11.00
2022-09-26T06:21:23.472Z,11.00
2022-09-26T06:23:51.036Z,11.00
2022-09-26T06:26:24.270Z,11.10
2022-09-26T06:29:05.353Z,11.20
2022-09-26T06:31:35.287Z,11.30
2022-09-26T06:34:03.090Z,11.40
2022-09-26T06:36:30.355Z,11.40
2022-09-26T06:39:13.481Z,11.50
2022-09-26T06:41:47.093Z,11.60
2022-09-26T06:47:01.965Z,11.60
2022-09-26T06:49:49.797Z,11.60
2022-09-26T06:52:23.793Z,11.60
2022-09-26T06:54:55.465Z,11.70
2022-09-26T06:58:02.940Z,11.70
2022-09-26T07:00:39.791Z,11.80
2022-09-26T07:03:10.193Z,11.90
2022-09-26T07:05:40.826Z,12.10
2022-09-26T07:08:17.708Z,12.50
2022-09-26T07:10:45.581Z,12.60
2022-09-26T07:13:30.580Z,12.70
2022-09-26T07:16:07.398Z,12.60
2022-09-26T07:18:38.674Z,12.50
2022-09-26T07:21:12.382Z,12.40
2022-09-26T07:23:49.145Z,12.40
2022-09-26T07:26:24.642Z,12.40
2022-09-26T07:28:55.546Z,12.20
2022-09-26T07:31:46.630Z,12.30
2022-09-26T07:34:20.647Z,12.50
2022-09-26T07:36:51.552Z,12.60
2022-09-26T07:39:22.502Z,12.70
2022-09-26T07:42:00.378Z,12.90
2022-09-26T07:45:28.852Z,13.10
2022-09-26T07:47:34.458Z,13.20
2022-09-26T07:50:18.733Z,13.60
2022-09-26T07:52:56.101Z,13.80
2022-09-26T07:55:28.816Z,14.20
2022-09-26T07:58:02.245Z,14.00
2022-09-26T08:00:44.859Z,14.00
2022-09-26T08:03:52.736Z,13.80
2022-09-26T08:09:33.777Z,14.10
2022-09-26T08:12:11.521Z,14.50
2022-09-26T08:14:48.015Z,14.30
2022-09-26T08:17:20.559Z,14.20
2022-09-26T08:19:51.881Z,14.20
2022-09-26T08:22:30.715Z,14.10
2022-09-26T08:25:06.932Z,14.50
2022-09-26T08:27:35.058Z,15.20
2022-09-26T08:30:08.459Z,16.80
2022-09-26T08:32:39.762Z,18.50
2022-09-26T08:35:07.976Z,19.90
2022-09-26T08:37:41.100Z,20.00
2022-09-26T08:40:16.165Z,19.20
2022-09-26T08:42:56.635Z,18.20
2022-09-26T08:46:01.860Z,18.10
2022-09-26T08:48:48.736Z,19.30
2022-09-26T08:51:40.148Z,19.20
2022-09-26T08:54:11.629Z,18.90
2022-09-26T08:57:08.562Z,20.30
2022-09-26T08:59:46.359Z,21.40
2022-09-26T09:02:30.703Z,21.50
2022-09-26T09:05:17.657Z,22.10
2022-09-26T09:07:49.717Z,21.80
2022-09-26T09:10:19.942Z,22.40
2022-09-26T09:13:10.924Z,21.70
2022-09-26T09:15:49.685Z,21.80
2022-09-26T09:18:34.183Z,22.70
2022-09-26T09:21:24.500Z,23.00
2022-09-26T09:24:16.973Z,23.40
2022-09-26T09:29:57.080Z,24.50
2022-09-26T09:32:37.682Z,24.20
2022-09-26T09:35:04.948Z,24.30
2022-09-26T09:37:46.265Z,24.20
2022-09-26T09:40:22.439Z,24.40
2022-09-26T09:43:26.305Z,24.30
2022-09-26T09:46:00.130Z,24.00
2022-09-26T09:48:31.727Z,24.50
2022-09-26T09:51:19.971Z,25.00
2022-09-26T09:54:21.917Z,25.60
2022-09-26T09:56:59.535Z,25.20
2022-09-26T09:59:57.428Z,25.70
2022-09-26T10:03:00.186Z,26.70
2022-09-26T10:05:35.024Z,24.90
2022-09-26T10:08:03.234Z,24.20
2022-09-26T10:11:12.057Z,24.70
2022-09-26T10:13:44.411Z,26.10
2022-09-26T10:16:15.653Z,25.70
2022-09-26T10:19:03.551Z,25.40
2022-09-26T10:21:43.469Z,25.90
2022-09-26T10:24:41.075Z,26.00
2022-09-26T10:27:24.798Z,24.80
2022-09-26T10:30:00.101Z,23.20
2022-09-26T10:32:30.538Z,22.10
2022-09-26T10:35:38.752Z,20.90
2022-09-26T10:38:54.362Z,19.40
2022-09-26T10:41:28.124Z,17.80
2022-09-26T10:44:04.186Z,16.70
2022-09-26T10:47:01.784Z,15.80
2022-09-26T10:53:20.923Z,15.20
2022-09-26T10:59:04.363Z,17.30
2022-09-26T13:14:26.319Z,22.60
2022-09-26T13:16:51.224Z,23.50
2022-09-26T13:19:35.858Z,24.30
2022-09-26T13:22:41.445Z,24.80
2022-09-26T13:25:11.587Z,24.80
2022-09-26T13:27:47.133Z,25.10
2022-09-26T13:30:27.042Z,25.90
2022-09-26T13:33:27.997Z,25.60
2022-09-26T13:35:58.544Z,25.50
2022-09-26T13:39:08.497Z,25.40
2022-09-26T13:42:13.702Z,25.40
2022-09-26T13:45:12.319Z,25.30
2022-09-26T14:11:52.253Z,24.00
2022-09-26T14:14:38.070Z,24.80
2022-09-26T14:18:00.400Z,24.80
2022-09-26T14:20:34.375Z,24.90
2022-09-26T14:23:06.944Z,24.80
2022-09-26T15:15:46.549Z,23.50
2022-09-26T15:32:47.651Z,24.10
2022-09-26T15:35:56.868Z,23.20
2022-09-26T16:03:59.493Z,19.00
2022-09-26T17:24:32.318Z,12.80
2022-09-26T17:25:46.470Z,13.50
2022-09-26T17:27:13.508Z,12.80
2022-09-26T17:29:52.341Z,12.80
2022-09-26T17:36:26.685Z,12.90
2022-09-26T17:38:54.958Z,12.90
2022-09-26T17:41:46.115Z,13.00
2022-09-26T17:44:14.247Z,12.90
2022-09-26T17:46:51.344Z,12.90
2022-09-26T17:49:31.125Z,12.90
2022-09-26T17:52:01.133Z,12.90
2022-09-26T17:54:42.713Z,12.90
2022-09-26T17:57:14.437Z,12.80
2022-09-26T17:59:42.765Z,12.70
2022-09-26T18:02:42.711Z,12.60
2022-09-26T18:05:19.618Z,12.60
2022-09-26T18:07:49.174Z,12.60
2022-09-26T18:10:33.277Z,12.60
2022-09-26T18:13:03.598Z,12.60
2022-09-26T18:15:30.640Z,12.60
2022-09-26T18:17:57.765Z,12.50
2022-09-26T18:20:36.316Z,12.50
2022-09-26T18:23:06.480Z,12.50
2022-09-26T18:25:34.555Z,12.50
2022-09-26T18:28:05.981Z,12.50
2022-09-26T18:30:35.394Z,12.50
2022-09-26T18:33:04.465Z,12.40
2022-09-26T18:35:31.680Z,12.40
2022-09-26T18:37:59.791Z,12.40
2022-09-26T18:40:28.456Z,12.40
2022-09-26T18:42:57.672Z,12.30
2022-09-26T18:45:29.975Z,12.40
2022-09-26T18:47:57.086Z,12.40
2022-09-26T18:50:31.396Z,12.40
2022-09-26T18:52:58.332Z,12.40
2022-09-26T18:55:44.819Z,12.40
2022-09-26T18:58:24.252Z,12.40
2022-09-26T19:01:07.064Z,12.40
2022-09-26T19:03:37.035Z,12.30
2022-09-26T19:06:07.851Z,12.30
2022-09-26T19:08:42.466Z,12.20
2022-09-26T19:11:18.817Z,12.20
2022-09-26T19:13:50.352Z,12.20
2022-09-26T19:16:17.619Z,12.10
2022-09-26T19:18:45.504Z,12.10
2022-09-26T19:21:35.315Z,12.10
2022-09-26T19:24:09.175Z,12.10
2022-09-26T19:26:42.190Z,12.10
2022-09-26T19:29:21.461Z,12.20
2022-09-26T19:31:49.349Z,12.20
2022-09-26T19:34:19.985Z,12.20
2022-09-26T19:36:46.965Z,12.20
2022-09-26T19:39:15.288Z,12.20
2022-09-26T19:41:42.277Z,12.20
2022-09-26T19:44:09.334Z,12.20
2022-09-26T19:46:38.238Z,12.20
2022-09-26T19:49:06.692Z,12.20
2022-09-26T19:51:38.343Z,12.20
2022-09-26T19:54:06.489Z,12.10
2022-09-26T19:56:33.668Z,12.10
2022-09-26T19:59:01.038Z,12.10
2022-09-26T20:01:27.980Z,12.10
2022-09-26T20:03:59.123Z,12.10
2022-09-26T20:06:26.579Z,12.00
2022-09-26T20:09:00.491Z,12.00
2022-09-26T20:11:28.571Z,12.00
2022-09-26T20:14:14.035Z,12.00
2022-09-26T20:16:42.763Z,12.00
2022-09-26T20:19:16.188Z,12.00
2022-09-26T20:21:43.207Z,12.00
2022-09-26T20:24:16.447Z,12.00
2022-09-26T20:26:43.507Z,12.00
2022-09-26T20:29:15.377Z,12.00
2022-09-26T20:31:43.659Z,12.00
2022-09-26T20:34:11.655Z,12.00
2022-09-26T20:36:42.210Z,12.00
2022-09-26T20:39:15.806Z,12.00
2022-09-26T20:41:43.921Z,11.90
2022-09-26T20:44:33.590Z,11.90
2022-09-26T20:47:04.210Z,11.90
2022-09-26T20:49:37.989Z,11.90
2022-09-26T20:52:08.826Z,11.90
2022-09-26T20:54:36.329Z,11.90
2022-09-26T20:57:03.151Z,11.80
2022-09-26T20:59:30.549Z,11.90
2022-09-26T21:01:58.697Z,11.80
2022-09-26T21:04:31.898Z,11.80
2022-09-26T21:06:58.728Z,11.80
2022-09-26T21:09:25.600Z,11.90
2022-09-26T21:11:52.393Z,11.90
2022-09-26T21:14:19.248Z,11.80
2022-09-26T21:16:50.298Z,11.90
2022-09-26T21:19:22.857Z,11.80
2022-09-26T21:21:51.293Z,11.90
2022-09-26T21:24:28.868Z,11.90
2022-09-26T21:26:55.717Z,11.80
2022-09-26T21:29:22.681Z,11.80
2022-09-26T21:31:51.709Z,11.80
2022-09-26T21:34:28.458Z,11.70
2022-09-26T21:36:57.222Z,11.70
2022-09-26T21:39:25.359Z,11.70
2022-09-26T21:41:58.588Z,11.70
2022-09-26T21:44:30.076Z,11.70
2022-09-26T21:46:57.076Z,11.70
2022-09-26T21:49:24.998Z,11.70
2022-09-26T21:51:58.018Z,11.70
2022-09-26T21:54:33.621Z,11.60
2022-09-26T21:57:20.679Z,11.60
2022-09-26T21:59:51.646Z,11.60
2022-09-26T22:02:18.472Z,11.50
2022-09-26T22:04:45.353Z,11.50
2022-09-26T22:07:12.105Z,11.50
2022-09-26T22:09:38.965Z,11.40
2022-09-26T22:12:05.873Z,11.50
2022-09-26T22:14:32.746Z,11.50
2022-09-26T22:16:59.919Z,11.50
2022-09-26T22:19:27.521Z,11.50
2022-09-26T22:21:54.674Z,11.50
2022-09-26T22:24:21.452Z,11.50
2022-09-26T22:26:48.209Z,11.50
2022-09-26T22:29:15.251Z,11.50
2022-09-26T22:31:42.609Z,11.50
2022-09-26T22:34:09.588Z,11.50
2022-09-26T22:36:36.633Z,11.60
2022-09-26T22:39:03.858Z,11.60
2022-09-26T22:41:30.745Z,11.60
2022-09-26T22:43:57.641Z,11.50
2022-09-26T22:46:24.591Z,11.50
2022-09-26T22:48:51.477Z,11.40
2022-09-26T22:51:18.534Z,11.30
2022-09-26T22:53:45.547Z,11.30
2022-09-26T22:56:15.010Z,11.30
2022-09-26T22:58:44.191Z,11.20
2022-09-26T23:01:13.830Z,11.20
2022-09-26T23:03:41.359Z,11.20
2022-09-26T23:06:09.227Z,11.20
2022-09-26T23:08:36.700Z,11.20
2022-09-26T23:11:05.290Z,11.20
2022-09-26T23:13:32.988Z,11.10
2022-09-26T23:16:11.781Z,11.10
2022-09-26T23:18:40.155Z,11.10
2022-09-26T23:21:24.128Z,11.10
2022-09-26T23:23:56.095Z,11.10
2022-09-26T23:26:25.468Z,11.10
2022-09-26T23:28:54.443Z,11.10
2022-09-26T23:31:22.480Z,11.10
2022-09-26T23:33:49.405Z,11.10
2022-09-26T23:36:16.568Z,11.10
2022-09-26T23:38:43.597Z,11.00
2022-09-26T23:41:11.856Z,11.00
2022-09-26T23:43:39.688Z,11.00
2022-09-26T23:46:07.614Z,10.90
2022-09-26T23:48:35.217Z,10.90
2022-09-26T23:51:02.084Z,10.90
2022-09-26T23:53:28.866Z,10.80
2022-09-26T23:56:05.862Z,10.80
2022-09-26T23:58:33.245Z,10.80
